Terminal Aerodrome Forecast
Issued by NWS

Home | Current Version | Previous Version | Text Only | Print | Product List | Glossary On
Versions: 1 2 3 4 5 6 7 8 9 10 11 12 13 14 15 16 17 18 19 20 21
000
FTUS43 KDVN 200500
TAFCID
TAF
KCID 200520Z 2006/2106 15004KT P6SM OVC023
     FM200800 15004KT 6SM BR OVC018
     FM201100 16005KT 4SM BR OVC009
     FM201700 17006KT P6SM OVC015=

USA.gov is the U.S. government's official web portal to all federal, state and local government web resources and services.